Time;durP1;ratioP1;P1;durP2;ratioP2;P2;SDS_P1;SDS_P2;PMS_P1;PMS_P2;Temp;Humidity;BMP_temperature;BMP_pressure;BME280_temperature;BME280_humidity;BME280_pressure;Samples;Min_cycle;Max_cycle;Signal;HPM_P1;HPM_P2
2021/06/26 00:01:11;;;;;;;41.20;34.85;;;16.50;99.90;;;;;;5071663;28;20037;-67
2021/06/26 00:03:37;;;;;;;40.08;35.78;;;16.50;99.90;;;;;;5071676;28;20369;-67
2021/06/26 00:06:03;;;;;;;41.60;36.90;;;16.50;99.90;;;;;;5071658;28;20041;-67
2021/06/26 00:08:29;;;;;;;44.53;38.83;;;16.50;99.90;;;;;;5070630;28;20050;-67
2021/06/26 00:10:56;;;;;;;41.38;36.67;;;16.50;99.90;;;;;;5070824;28;20045;-67
2021/06/26 00:13:22;;;;;;;41.90;37.28;;;16.50;99.90;;;;;;5071363;28;20032;-67
2021/06/26 00:15:49;;;;;;;41.05;36.13;;;16.50;99.90;;;;;;5069633;28;20033;-67
2021/06/26 00:18:15;;;;;;;39.50;35.28;;;16.40;99.90;;;;;;5071050;28;20040;-67
2021/06/26 00:20:42;;;;;;;39.42;35.22;;;16.40;99.90;;;;;;5070650;28;20032;-67
2021/06/26 00:23:09;;;;;;;42.15;37.53;;;16.40;99.90;;;;;;5070289;28;20045;-67
2021/06/26 00:25:34;;;;;;;40.85;36.58;;;16.40;99.90;;;;;;5070255;28;20052;-67
2021/06/26 00:28:00;;;;;;;43.30;36.22;;;16.40;99.90;;;;;;5070979;28;20047;-68
2021/06/26 00:30:26;;;;;;;39.88;35.72;;;16.40;99.90;;;;;;5052623;28;20056;-68
2021/06/26 00:32:53;;;;;;;40.38;36.17;;;16.50;99.90;;;;;;5051774;28;20079;-67
2021/06/26 00:35:19;;;;;;;42.75;37.55;;;16.50;99.90;;;;;;5070784;28;20085;-67
2021/06/26 00:37:45;;;;;;;42.42;37.53;;;16.50;99.90;;;;;;5059896;28;20041;-68
2021/06/26 00:40:11;;;;;;;43.17;38.50;;;16.50;99.90;;;;;;5051079;28;20088;-67
2021/06/26 00:42:41;;;;;;;44.53;39.65;;;16.50;99.90;;;;;;5066078;28;20051;-68
2021/06/26 00:45:13;;;;;;;43.75;39.05;;;16.50;99.90;;;;;;5070623;28;20047;-67
2021/06/26 00:47:40;;;;;;;43.70;38.92;;;16.50;99.90;;;;;;5051884;28;20071;-67
2021/06/26 00:50:16;;;;;;;42.83;38.25;;;16.50;99.90;;;;;;5070373;28;20045;-67
2021/06/26 00:52:43;;;;;;;43.95;39.35;;;16.50;99.90;;;;;;5068428;28;20153;-67
2021/06/26 00:55:09;;;;;;;43.33;38.63;;;16.60;99.90;;;;;;5070578;28;20036;-67
2021/06/26 00:57:36;;;;;;;40.50;36.10;;;16.60;99.90;;;;;;5070378;28;20044;-67
2021/06/26 01:00:04;;;;;;;42.97;38.38;;;16.60;99.90;;;;;;5070778;28;20056;-67
2021/06/26 01:02:30;;;;;;;41.35;36.85;;;16.60;99.90;;;;;;5070094;28;20048;-67
2021/06/26 01:04:56;;;;;;;41.65;37.22;;;16.60;99.90;;;;;;5070686;28;20040;-67
2021/06/26 01:07:21;;;;;;;40.63;36.33;;;16.60;99.90;;;;;;5068071;28;20064;-67
2021/06/26 01:09:47;;;;;;;43.05;37.35;;;16.60;99.90;;;;;;5052289;28;20489;-67
2021/06/26 01:12:13;;;;;;;41.20;36.90;;;16.60;99.90;;;;;;5070157;28;20082;-67
2021/06/26 01:14:40;;;;;;;42.08;35.92;;;16.60;99.90;;;;;;5070948;28;20470;-67
2021/06/26 01:17:07;;;;;;;41.40;36.95;;;16.60;99.90;;;;;;5070474;28;20052;-67
2021/06/26 01:19:35;;;;;;;39.45;35.28;;;16.60;99.90;;;;;;5070990;28;20036;-67
2021/06/26 01:22:05;;;;;;;39.80;35.67;;;16.60;99.90;;;;;;5070427;28;20072;-67
2021/06/26 01:24:30;;;;;;;39.33;35.03;;;16.60;99.90;;;;;;5069011;28;20040;-67
2021/06/26 01:26:57;;;;;;;39.65;35.47;;;16.60;99.90;;;;;;5070490;28;20060;-67
2021/06/26 01:29:24;;;;;;;41.85;36.08;;;16.60;99.90;;;;;;5069538;28;20067;-67
2021/06/26 01:31:49;;;;;;;41.53;37.10;;;16.60;99.90;;;;;;5052772;28;20044;-67
2021/06/26 01:34:15;;;;;;;42.90;38.30;;;16.60;99.90;;;;;;5070675;28;20433;-67
2021/06/26 01:36:41;;;;;;;39.72;35.53;;;16.60;99.90;;;;;;5052791;28;20047;-67
2021/06/26 01:39:06;;;;;;;41.30;36.80;;;16.60;99.90;;;;;;5070390;28;20041;-67
2021/06/26 01:41:32;;;;;;;39.60;34.85;;;16.60;99.90;;;;;;5069887;28;20036;-67
2021/06/26 01:43:59;;;;;;;41.15;36.85;;;16.60;99.90;;;;;;5069387;28;20035;-67
2021/06/26 01:46:24;;;;;;;41.05;36.88;;;16.60;99.90;;;;;;5068494;28;20055;-67
2021/06/26 01:48:50;;;;;;;40.55;36.17;;;16.60;99.90;;;;;;5077650;28;20025;-67
2021/06/26 01:51:16;;;;;;;42.30;36.78;;;16.60;99.90;;;;;;5052316;28;20071;-67
2021/06/26 01:53:42;;;;;;;43.83;39.13;;;16.60;99.90;;;;;;5070819;28;20068;-67
2021/06/26 01:56:08;;;;;;;42.33;37.83;;;16.60;99.90;;;;;;5074102;28;20037;-67
2021/06/26 01:58:34;;;;;;;41.78;37.53;;;16.60;99.90;;;;;;5074054;28;20485;-67
2021/06/26 02:00:59;;;;;;;43.70;37.45;;;16.60;99.90;;;;;;5072378;28;20045;-67
2021/06/26 02:03:25;;;;;;;41.72;37.22;;;16.60;99.90;;;;;;5073892;28;20043;-67
2021/06/26 02:05:50;;;;;;;41.53;37.22;;;16.60;99.90;;;;;;5073999;28;20043;-67
2021/06/26 02:08:16;;;;;;;43.00;36.83;;;16.60;99.90;;;;;;5073712;28;20033;-67
2021/06/26 02:10:42;;;;;;;41.03;36.70;;;16.60;99.90;;;;;;5073051;28;20070;-67
2021/06/26 02:13:07;;;;;;;40.90;36.35;;;16.60;99.90;;;;;;5070527;28;20040;-67
2021/06/26 02:15:33;;;;;;;42.28;37.70;;;16.60;99.90;;;;;;5073649;28;20036;-67
2021/06/26 02:17:59;;;;;;;40.92;36.38;;;16.60;99.90;;;;;;5051382;28;20577;-67
2021/06/26 02:20:25;;;;;;;44.40;37.72;;;16.60;99.90;;;;;;5064778;28;20041;-67
2021/06/26 02:22:51;;;;;;;43.42;38.70;;;16.60;99.90;;;;;;5073691;28;20486;-67
2021/06/26 02:25:17;;;;;;;44.88;39.78;;;16.60;99.90;;;;;;5073231;28;20076;-67
2021/06/26 02:27:43;;;;;;;44.22;39.53;;;16.60;99.90;;;;;;5073458;28;20094;-67
2021/06/26 02:30:11;;;;;;;46.17;41.25;;;16.60;99.90;;;;;;5072315;28;20037;-67
2021/06/26 02:32:38;;;;;;;42.90;38.35;;;16.60;99.90;;;;;;5055617;28;20119;-67
2021/06/26 02:35:04;;;;;;;43.33;38.72;;;16.50;99.90;;;;;;5073510;28;20356;-67
2021/06/26 02:37:30;;;;;;;42.05;37.75;;;16.50;99.90;;;;;;5073050;28;20040;-67
2021/06/26 02:39:55;;;;;;;42.83;38.33;;;16.50;99.90;;;;;;5073279;28;20520;-67
2021/06/26 02:42:21;;;;;;;42.85;37.80;;;16.50;99.90;;;;;;5073307;28;20087;-67
2021/06/26 02:44:47;;;;;;;44.25;38.53;;;16.50;99.90;;;;;;5073094;28;20024;-67
2021/06/26 02:47:13;;;;;;;42.83;38.10;;;16.60;99.90;;;;;;5070652;28;20108;-67
2021/06/26 02:49:39;;;;;;;43.55;38.88;;;16.50;99.90;;;;;;5072854;28;20115;-67
2021/06/26 02:52:05;;;;;;;43.95;38.28;;;16.60;99.90;;;;;;5073354;28;20055;-67
2021/06/26 02:54:32;;;;;;;43.95;39.25;;;16.60;99.90;;;;;;5054938;28;20082;-67
2021/06/26 02:56:58;;;;;;;44.67;39.92;;;16.50;99.90;;;;;;5073069;28;20374;-67
2021/06/26 02:59:24;;;;;;;43.58;38.83;;;16.60;99.90;;;;;;5072809;28;20032;-67
2021/06/26 03:01:49;;;;;;;43.65;39.05;;;16.50;99.90;;;;;;5054954;28;20044;-67
2021/06/26 03:04:15;;;;;;;42.45;37.85;;;16.60;99.90;;;;;;5050625;28;20045;-67
2021/06/26 03:06:40;;;;;;;42.75;38.20;;;16.60;99.90;;;;;;5070860;28;20398;-68
2021/06/26 03:09:06;;;;;;;41.38;36.97;;;16.50;99.90;;;;;;5072567;28;20040;-67
2021/06/26 03:11:32;;;;;;;42.55;37.88;;;16.60;99.90;;;;;;5069420;28;20041;-67
2021/06/26 03:13:57;;;;;;;42.30;37.70;;;16.60;99.90;;;;;;5071722;28;20049;-67
2021/06/26 03:16:23;;;;;;;41.72;37.33;;;16.60;99.90;;;;;;5072981;28;20090;-67
2021/06/26 03:18:49;;;;;;;40.20;36.00;;;16.60;99.90;;;;;;5072402;28;20068;-67
2021/06/26 03:21:15;;;;;;;41.67;37.20;;;16.60;99.90;;;;;;5071000;28;20446;-67
2021/06/26 03:23:44;;;;;;;42.33;37.78;;;16.60;99.90;;;;;;5072174;28;20064;-67
2021/06/26 03:26:10;;;;;;;41.42;37.03;;;16.60;99.90;;;;;;5066489;28;20454;-67
2021/06/26 03:28:36;;;;;;;42.03;37.65;;;16.60;99.90;;;;;;5072127;28;20035;-67
2021/06/26 03:31:02;;;;;;;42.50;37.90;;;16.60;99.90;;;;;;5071111;28;20067;-67
2021/06/26 03:33:28;;;;;;;39.85;35.35;;;16.60;99.90;;;;;;5072048;28;20043;-67
2021/06/26 03:35:54;;;;;;;41.42;36.95;;;16.60;99.90;;;;;;5071326;28;20033;-67
2021/06/26 03:38:20;;;;;;;41.15;36.90;;;16.60;99.90;;;;;;5071879;28;20040;-67
2021/06/26 03:40:46;;;;;;;41.00;36.55;;;16.60;99.90;;;;;;5072088;28;20047;-67
2021/06/26 03:43:11;;;;;;;40.45;36.15;;;16.70;99.90;;;;;;5071693;28;20037;-67
2021/06/26 03:45:39;;;;;;;41.13;36.70;;;16.70;99.90;;;;;;5072224;28;20460;-67
2021/06/26 03:48:05;;;;;;;42.17;37.65;;;16.70;99.90;;;;;;5064462;28;20036;-67
2021/06/26 03:50:33;;;;;;;41.40;37.17;;;16.70;99.90;;;;;;5070752;28;20064;-67
2021/06/26 03:52:59;;;;;;;44.13;37.50;;;16.70;99.90;;;;;;5056319;28;20058;-67
2021/06/26 03:55:25;;;;;;;41.75;37.38;;;16.70;99.90;;;;;;5071670;28;20068;-67
2021/06/26 03:57:50;;;;;;;42.33;37.90;;;16.70;99.90;;;;;;5071531;28;20070;-67
2021/06/26 04:00:16;;;;;;;41.85;37.28;;;16.70;99.90;;;;;;5071637;28;20536;-67
2021/06/26 04:02:42;;;;;;;43.15;37.78;;;16.80;99.90;;;;;;5071555;28;20036;-67
2021/06/26 04:05:08;;;;;;;41.95;37.45;;;16.80;99.90;;;;;;5070212;28;20133;-67
2021/06/26 04:07:35;;;;;;;41.65;37.25;;;16.80;99.90;;;;;;5071770;28;20052;-67
2021/06/26 04:10:00;;;;;;;41.50;37.00;;;16.80;99.90;;;;;;5070799;28;20032;-67
2021/06/26 04:12:26;;;;;;;42.50;38.03;;;16.80;99.90;;;;;;5067260;28;20040;-67
2021/06/26 04:14:52;;;;;;;40.70;36.35;;;16.90;99.90;;;;;;5069611;28;20055;-68
2021/06/26 04:17:17;;;;;;;43.17;38.40;;;16.90;99.90;;;;;;5069930;28;20507;-68
2021/06/26 04:19:48;;;;;;;45.60;38.72;;;16.90;99.90;;;;;;5070828;28;20056;-68
2021/06/26 04:22:13;;;;;;;41.42;37.13;;;16.90;99.90;;;;;;5069496;28;20438;-67
2021/06/26 04:24:39;;;;;;;43.90;39.28;;;17.00;99.90;;;;;;5070973;28;20074;-67
2021/06/26 04:27:05;;;;;;;42.42;37.78;;;17.00;99.90;;;;;;5071243;28;20052;-67
2021/06/26 04:29:31;;;;;;;41.75;37.33;;;17.00;99.90;;;;;;5071218;28;20086;-67
2021/06/26 04:31:56;;;;;;;42.60;38.00;;;17.00;99.90;;;;;;5071136;28;20391;-67
2021/06/26 04:34:22;;;;;;;43.67;39.08;;;17.00;99.90;;;;;;5071502;28;20052;-67
2021/06/26 04:36:48;;;;;;;44.47;39.08;;;17.10;99.90;;;;;;5071154;28;20478;-67
2021/06/26 04:39:14;;;;;;;42.22;37.72;;;17.10;99.90;;;;;;5069800;28;20578;-67
2021/06/26 04:41:40;;;;;;;41.90;37.42;;;17.10;99.90;;;;;;5070045;28;20114;-67
2021/06/26 04:44:06;;;;;;;44.10;39.13;;;17.20;99.90;;;;;;5071302;28;20379;-67
2021/06/26 04:46:32;;;;;;;40.85;36.53;;;17.20;99.90;;;;;;5063699;28;20086;-67
2021/06/26 04:48:58;;;;;;;44.00;39.17;;;17.30;99.90;;;;;;5053148;28;20032;-67
2021/06/26 04:51:24;;;;;;;41.70;37.30;;;17.40;99.90;;;;;;5070717;28;20040;-67
2021/06/26 04:53:51;;;;;;;47.03;34.97;;;17.40;99.90;;;;;;5071142;28;20067;-67
2021/06/26 04:56:16;;;;;;;40.67;35.95;;;17.50;99.90;;;;;;5069246;28;20383;-67
2021/06/26 04:58:42;;;;;;;40.53;36.05;;;17.60;99.90;;;;;;5071176;28;20040;-67
2021/06/26 05:01:08;;;;;;;38.28;34.13;;;17.70;99.90;;;;;;5070820;28;20041;-67
2021/06/26 05:03:33;;;;;;;41.03;36.78;;;17.80;99.90;;;;;;5070618;28;20144;-68
2021/06/26 05:06:00;;;;;;;39.50;35.28;;;17.80;99.90;;;;;;5061775;28;20045;-67
2021/06/26 05:08:27;;;;;;;40.17;36.08;;;18.00;99.90;;;;;;5068564;28;20036;-67
2021/06/26 05:10:53;;;;;;;36.28;32.33;;;18.20;99.90;;;;;;5071118;28;20074;-67
2021/06/26 05:13:18;;;;;;;44.25;35.90;;;18.40;99.90;;;;;;5069820;28;20040;-67
2021/06/26 05:15:44;;;;;;;40.78;36.38;;;18.70;99.90;;;;;;5069640;28;20044;-69
2021/06/26 05:18:11;;;;;;;34.40;30.83;;;18.90;99.90;;;;;;5070916;28;20510;-67
2021/06/26 05:20:38;;;;;;;36.20;32.33;;;19.00;99.90;;;;;;5068975;28;20045;-67
2021/06/26 05:23:12;;;;;;;40.03;35.80;;;19.20;99.90;;;;;;5070744;28;20625;-67
2021/06/26 05:25:38;;;;;;;38.45;34.70;;;19.30;99.90;;;;;;5059844;28;20044;-67
2021/06/26 05:28:03;;;;;;;40.78;36.40;;;19.20;99.90;;;;;;5070811;28;20036;-68
2021/06/26 05:30:29;;;;;;;40.30;36.15;;;19.30;99.90;;;;;;5073338;28;20474;-67
2021/06/26 05:32:55;;;;;;;40.78;36.38;;;19.30;99.90;;;;;;5074710;28;20047;-67
2021/06/26 05:35:20;;;;;;;41.63;37.00;;;19.40;99.90;;;;;;5060815;28;20102;-67
2021/06/26 05:37:46;;;;;;;43.38;37.88;;;19.40;99.90;;;;;;5054617;28;20124;-68
2021/06/26 05:40:12;;;;;;;42.17;37.78;;;19.40;99.90;;;;;;5069348;28;20127;-67
2021/06/26 05:42:38;;;;;;;41.63;37.10;;;19.30;99.90;;;;;;5074613;28;20040;-67
2021/06/26 05:45:05;;;;;;;41.75;37.42;;;19.30;99.90;;;;;;5074097;28;20053;-67
2021/06/26 05:47:31;;;;;;;40.72;36.45;;;19.20;99.90;;;;;;5093180;28;20473;-67
2021/06/26 05:49:56;;;;;;;37.40;33.30;;;19.20;99.90;;;;;;5084022;28;20033;-67
2021/06/26 05:52:22;;;;;;;38.55;34.45;;;19.20;99.90;;;;;;5071412;28;20098;-67
2021/06/26 05:54:47;;;;;;;40.60;36.15;;;19.20;99.90;;;;;;5074243;28;20043;-67
2021/06/26 05:57:13;;;;;;;39.10;35.10;;;19.20;99.90;;;;;;5073418;28;20093;-67
2021/06/26 05:59:39;;;;;;;41.65;37.25;;;19.20;99.90;;;;;;5074128;28;20040;-67
2021/06/26 06:02:09;;;;;;;41.88;37.40;;;19.20;99.90;;;;;;5066917;28;20577;-67
2021/06/26 06:04:35;;;;;;;40.55;36.35;;;19.20;99.90;;;;;;5054248;28;20037;-67
2021/06/26 06:07:01;;;;;;;40.50;36.33;;;19.20;99.90;;;;;;5054076;28;20037;-67
2021/06/26 06:09:27;;;;;;;42.10;37.70;;;19.10;99.90;;;;;;5066725;28;20029;-67
2021/06/26 06:11:53;;;;;;;41.05;36.75;;;19.10;99.90;;;;;;5060165;28;20359;-67
2021/06/26 06:14:18;;;;;;;42.35;36.90;;;19.20;99.90;;;;;;5062794;28;20048;-67
2021/06/26 06:16:44;;;;;;;37.92;33.97;;;19.20;99.90;;;;;;5064880;28;20041;-67
2021/06/26 06:19:09;;;;;;;40.85;36.45;;;19.20;99.90;;;;;;5073063;28;20139;-68
2021/06/26 06:21:36;;;;;;;40.08;35.75;;;19.20;99.90;;;;;;5073500;28;20470;-67
2021/06/26 06:24:01;;;;;;;43.05;36.50;;;19.30;99.90;;;;;;5066080;28;20037;-67
2021/06/26 06:26:27;;;;;;;37.30;33.38;;;19.30;99.90;;;;;;5053417;28;20793;-68
2021/06/26 06:28:53;;;;;;;40.00;35.80;;;19.40;99.90;;;;;;5047807;28;20044;-68
2021/06/26 06:31:18;;;;;;;38.70;34.78;;;19.40;99.90;;;;;;5053364;28;20485;-67
2021/06/26 06:33:44;;;;;;;41.95;37.65;;;19.50;99.90;;;;;;5053665;28;20425;-68
2021/06/26 06:36:10;;;;;;;42.90;38.30;;;19.60;99.90;;;;;;5053248;28;20724;-67
2021/06/26 06:38:35;;;;;;;41.03;36.50;;;19.70;99.90;;;;;;5047414;28;20079;-68
2021/06/26 06:41:01;;;;;;;38.08;34.13;;;19.70;99.90;;;;;;5081133;23;20408;-66
2021/06/26 06:43:27;;;;;;;40.22;35.42;;;19.90;99.90;;;;;;5072074;28;20070;-66
2021/06/26 06:45:52;;;;;;;41.05;36.85;;;20.00;99.90;;;;;;5069017;28;20068;-65
2021/06/26 06:48:18;;;;;;;37.30;33.40;;;20.10;99.90;;;;;;5066045;28;20519;-65
2021/06/26 06:50:44;;;;;;;41.42;37.08;;;20.20;99.90;;;;;;5061709;28;20040;-65
2021/06/26 06:53:09;;;;;;;37.70;33.90;;;20.30;99.90;;;;;;5060588;28;20044;-65
2021/06/26 06:55:35;;;;;;;40.72;36.55;;;20.40;99.90;;;;;;5059996;28;20036;-65
2021/06/26 06:58:00;;;;;;;38.60;34.58;;;20.40;99.90;;;;;;5066366;28;20032;-65
2021/06/26 07:00:27;;;;;;;34.75;31.13;;;20.60;99.90;;;;;;5066894;28;20394;-65
2021/06/26 07:02:52;;;;;;;34.67;31.05;;;20.90;99.90;;;;;;5068569;28;20044;-66
2021/06/26 07:05:18;;;;;;;35.05;31.40;;;21.40;99.90;;;;;;5050046;28;20043;-65
2021/06/26 07:07:44;;;;;;;35.03;31.45;;;21.70;99.50;;;;;;5061776;28;20040;-65
2021/06/26 07:10:10;;;;;;;35.97;32.47;;;21.90;99.30;;;;;;5064508;28;21435;-65
2021/06/26 07:12:36;;;;;;;36.08;32.28;;;22.20;98.20;;;;;;5065786;28;20150;-66
2021/06/26 07:15:03;;;;;;;35.17;31.52;;;22.30;97.20;;;;;;5061153;28;20120;-65
2021/06/26 07:17:28;;;;;;;33.30;29.88;;;22.50;96.80;;;;;;5070454;28;20107;-65
2021/06/26 07:19:54;;;;;;;31.42;28.33;;;22.90;96.10;;;;;;5064658;28;20035;-65
2021/06/26 07:22:20;;;;;;;30.02;26.80;;;23.30;96.10;;;;;;5068890;28;20036;-67
2021/06/26 07:24:46;;;;;;;29.60;26.58;;;23.70;95.80;;;;;;5065585;28;20448;-66
2021/06/26 07:27:11;;;;;;;28.75;25.80;;;24.00;95.60;;;;;;5069068;28;20123;-66
2021/06/26 07:29:37;;;;;;;28.80;25.90;;;24.30;93.80;;;;;;5050342;28;20064;-66
2021/06/26 07:32:03;;;;;;;29.83;27.02;;;24.40;94.00;;;;;;5063166;28;20119;-66
2021/06/26 07:34:29;;;;;;;28.52;25.77;;;24.60;94.40;;;;;;5064380;28;20028;-66
2021/06/26 07:36:54;;;;;;;30.15;27.08;;;24.60;92.90;;;;;;5073299;28;20138;-66
2021/06/26 07:39:20;;;;;;;28.75;25.92;;;24.70;92.40;;;;;;5055638;28;20029;-66
2021/06/26 07:41:46;;;;;;;29.15;26.33;;;24.60;92.70;;;;;;5064497;28;20040;-66
2021/06/26 07:44:11;;;;;;;28.25;25.48;;;24.30;92.50;;;;;;5071423;28;20094;-66
2021/06/26 07:46:38;;;;;;;28.83;25.98;;;24.30;93.30;;;;;;5075171;28;20052;-66
2021/06/26 07:49:04;;;;;;;28.25;25.52;;;23.80;92.00;;;;;;5086917;28;20043;-66
2021/06/26 07:51:30;;;;;;;27.98;25.15;;;23.30;93.30;;;;;;5073225;28;20067;-66
2021/06/26 07:53:55;;;;;;;27.83;25.15;;;23.30;93.40;;;;;;5053880;28;20408;-66
2021/06/26 07:56:21;;;;;;;26.77;24.17;;;23.60;92.60;;;;;;5071709;28;20040;-66
2021/06/26 07:58:47;;;;;;;27.40;24.60;;;23.50;92.90;;;;;;5070298;28;20059;-66
2021/06/26 08:01:14;;;;;;;26.35;23.85;;;23.60;93.40;;;;;;5071661;28;20032;-66
2021/06/26 08:03:40;;;;;;;26.35;23.55;;;23.90;93.70;;;;;;5053753;28;20048;-66
2021/06/26 08:06:05;;;;;;;23.30;21.00;;;24.40;93.40;;;;;;5071629;28;20393;-66
2021/06/26 08:08:31;;;;;;;26.77;24.17;;;24.80;92.40;;;;;;5067875;28;20032;-66
2021/06/26 08:10:56;;;;;;;25.17;22.70;;;25.50;91.10;;;;;;5070616;28;20067;-66
2021/06/26 08:13:24;;;;;;;24.27;21.95;;;24.70;90.30;;;;;;5070978;28;20040;-66
2021/06/26 08:15:49;;;;;;;25.02;22.40;;;25.00;90.90;;;;;;5070676;28;20230;-66
2021/06/26 08:18:15;;;;;;;26.35;23.83;;;24.90;91.30;;;;;;5075610;28;20040;-66
2021/06/26 08:20:42;;;;;;;25.85;23.35;;;24.00;91.80;;;;;;5070368;28;20075;-66
2021/06/26 08:23:09;;;;;;;24.45;21.98;;;24.00;92.30;;;;;;5070450;28;20098;-66
2021/06/26 08:25:35;;;;;;;23.13;20.95;;;24.20;92.40;;;;;;5052661;28;20064;-66
2021/06/26 08:28:01;;;;;;;22.90;20.67;;;24.40;92.60;;;;;;5070285;28;20482;-65
2021/06/26 08:30:27;;;;;;;24.08;21.77;;;24.50;90.80;;;;;;5068391;28;20047;-66
2021/06/26 08:32:53;;;;;;;23.15;20.88;;;24.60;90.50;;;;;;5052661;28;20037;-66
2021/06/26 08:35:19;;;;;;;20.35;18.42;;;24.50;91.00;;;;;;5068701;28;20496;-66
2021/06/26 08:37:44;;;;;;;24.38;22.05;;;24.30;91.30;;;;;;5062183;28;20116;-66
2021/06/26 08:40:13;;;;;;;24.77;22.38;;;24.10;91.90;;;;;;5070155;28;20044;-66
2021/06/26 08:42:39;;;;;;;24.05;21.73;;;24.10;92.30;;;;;;5064420;28;20044;-66
2021/06/26 08:45:17;;;;;;;23.33;21.13;;;24.20;92.20;;;;;;5069828;28;20466;-66
2021/06/26 08:47:45;;;;;;;18.17;16.10;;;24.30;92.40;;;;;;5066618;28;20028;-66
2021/06/26 08:50:11;;;;;;;18.10;16.33;;;24.20;91.60;;;;;;5061666;28;20044;-66
2021/06/26 08:52:37;;;;;;;17.75;16.05;;;24.00;91.80;;;;;;5045949;28;20063;-66
2021/06/26 08:55:03;;;;;;;17.23;15.55;;;24.10;91.50;;;;;;5062965;28;20040;-66
2021/06/26 08:57:33;;;;;;;21.52;19.33;;;24.10;92.10;;;;;;5050807;28;20068;-66
2021/06/26 09:00:00;;;;;;;20.77;18.88;;;24.30;91.10;;;;;;5061162;28;20071;-66
2021/06/26 09:02:28;;;;;;;19.63;17.73;;;24.40;91.40;;;;;;5066114;28;20040;-66
2021/06/26 09:04:54;;;;;;;13.30;12.10;;;24.40;91.20;;;;;;5049072;28;20107;-66
2021/06/26 09:07:31;;;;;;;16.10;14.60;;;24.60;90.10;;;;;;5051217;28;20417;-65
2021/06/26 09:09:58;;;;;;;17.30;15.55;;;24.50;91.10;;;;;;5067682;28;20044;-66
2021/06/26 09:12:26;;;;;;;14.00;12.55;;;24.20;91.10;;;;;;5067328;28;20040;-66
2021/06/26 09:14:53;;;;;;;12.02;10.82;;;24.20;91.50;;;;;;5068394;28;20040;-66
2021/06/26 09:17:33;;;;;;;11.50;10.30;;;24.00;91.60;;;;;;5068950;28;20508;-66
2021/06/26 09:20:03;;;;;;;15.90;14.40;;;24.30;90.80;;;;;;5068858;28;20107;-66
2021/06/26 09:22:40;;;;;;;15.52;14.00;;;24.30;90.90;;;;;;5070082;28;20086;-66
2021/06/26 09:25:30;;;;;;;13.82;12.52;;;24.20;91.80;;;;;;5070443;28;20052;-66
2021/06/26 09:28:01;;;;;;;11.48;10.38;;;24.10;91.10;;;;;;5066448;28;20075;-66
2021/06/26 09:30:35;;;;;;;9.83;8.83;;;23.90;91.40;;;;;;5069958;28;20153;-66
2021/06/26 09:33:03;;;;;;;11.40;7.50;;;24.10;91.50;;;;;;5070471;28;20720;-66
2021/06/26 09:35:28;;;;;;;8.88;7.97;;;24.40;91.90;;;;;;5066805;28;20036;-66
2021/06/26 09:37:56;;;;;;;8.70;8.00;;;24.60;90.90;;;;;;5062315;28;20085;-66
2021/06/26 09:40:28;;;;;;;10.18;9.25;;;24.90;90.70;;;;;;5046248;28;20527;-66
2021/06/26 09:42:55;;;;;;;9.50;8.60;;;25.10;90.10;;;;;;5044898;28;20037;-66
2021/06/26 09:45:21;;;;;;;11.73;10.55;;;25.20;90.20;;;;;;5043018;28;20041;-66
2021/06/26 09:47:47;;;;;;;11.10;10.18;;;25.20;89.80;;;;;;5030915;28;20099;-66
2021/06/26 09:50:27;;;;;;;11.30;10.30;;;25.10;89.90;;;;;;5049556;28;20104;-66
2021/06/26 09:52:53;;;;;;;9.05;8.20;;;25.30;88.90;;;;;;5049283;28;20037;-66
2021/06/26 09:55:34;;;;;;;9.00;8.20;;;25.50;86.30;;;;;;5049272;28;20047;-66
2021/06/26 09:58:11;;;;;;;9.68;8.68;;;25.80;85.20;;;;;;5049773;28;20040;-67
2021/06/26 10:00:38;;;;;;;9.43;8.63;;;24.90;85.80;;;;;;5049526;28;20056;-67
2021/06/26 10:03:04;;;;;;;8.90;8.10;;;24.70;88.30;;;;;;5047797;28;20040;-66
2021/06/26 10:05:31;;;;;;;10.25;9.35;;;25.10;87.40;;;;;;5049418;28;20425;-66
2021/06/26 10:07:59;;;;;;;9.95;9.07;;;25.10;87.60;;;;;;5049672;28;20045;-66
2021/06/26 10:10:25;;;;;;;10.07;9.18;;;25.30;86.50;;;;;;5048848;28;20032;-66
2021/06/26 10:12:53;;;;;;;7.97;7.28;;;25.10;87.20;;;;;;5054861;28;20422;-66
2021/06/26 10:15:21;;;;;;;7.13;6.43;;;25.10;87.50;;;;;;5049375;28;20036;-66
2021/06/26 10:17:47;;;;;;;6.03;5.47;;;25.00;87.50;;;;;;5054340;28;20041;-66
2021/06/26 10:20:14;;;;;;;5.95;5.38;;;25.00;88.00;;;;;;5050436;28;20041;-66
2021/06/26 10:22:47;;;;;;;7.05;6.45;;;25.20;86.50;;;;;;5053285;28;20049;-66
2021/06/26 10:25:14;;;;;;;7.57;5.95;;;25.20;86.70;;;;;;5053704;28;20554;-66
2021/06/26 10:27:40;;;;;;;7.20;6.60;;;25.20;87.00;;;;;;5053374;28;20090;-66
2021/06/26 10:30:20;;;;;;;7.00;6.30;;;25.20;87.40;;;;;;5053597;28;20075;-66
2021/06/26 10:33:00;;;;;;;6.30;5.72;;;25.40;88.40;;;;;;5053559;28;20528;-66
2021/06/26 10:35:31;;;;;;;6.38;5.78;;;25.50;88.70;;;;;;5053664;28;20041;-66
2021/06/26 10:38:10;;;;;;;6.50;6.00;;;25.60;88.10;;;;;;5052317;28;20064;-66
2021/06/26 10:40:38;;;;;;;6.20;5.70;;;25.60;88.00;;;;;;5062941;28;20045;-66
2021/06/26 10:43:13;;;;;;;7.25;6.55;;;25.40;88.70;;;;;;5073476;28;20036;-66
2021/06/26 10:45:39;;;;;;;7.57;6.85;;;25.30;88.80;;;;;;5071550;28;20118;-66
2021/06/26 10:48:15;;;;;;;7.75;7.05;;;25.00;88.50;;;;;;5062083;28;20072;-66
2021/06/26 10:50:49;;;;;;;7.28;6.68;;;24.90;87.10;;;;;;5073321;28;20392;-66
2021/06/26 10:53:33;;;;;;;7.20;6.50;;;24.70;89.70;;;;;;5072919;28;20032;-66
2021/06/26 10:56:00;;;;;;;7.63;6.60;;;24.80;90.10;;;;;;5071697;28;20490;-66
2021/06/26 10:58:29;;;;;;;7.38;6.78;;;25.00;90.00;;;;;;5073157;28;20045;-66
2021/06/26 11:00:54;;;;;;;7.03;6.32;;;25.10;87.70;;;;;;5071393;28;20047;-66
2021/06/26 11:03:25;;;;;;;7.03;6.40;;;24.90;88.10;;;;;;5070160;28;20378;-66
2021/06/26 11:05:51;;;;;;;7.03;6.43;;;25.00;87.80;;;;;;5072686;28;20079;-66
2021/06/26 11:08:20;;;;;;;5.85;5.35;;;25.20;87.50;;;;;;5072948;28;20060;-66
2021/06/26 11:10:57;;;;;;;5.30;4.90;;;25.40;88.20;;;;;;5071224;28;20040;-66
2021/06/26 11:13:25;;;;;;;6.18;5.68;;;25.70;87.90;;;;;;5066713;28;20039;-67
2021/06/26 11:15:51;;;;;;;5.63;5.13;;;25.90;85.50;;;;;;5072636;28;20039;-66
2021/06/26 11:18:19;;;;;;;5.78;5.28;;;25.70;86.40;;;;;;5072728;28;20450;-66
2021/06/26 11:20:45;;;;;;;5.28;4.80;;;25.70;87.70;;;;;;5079582;28;20040;-66
2021/06/26 11:23:16;;;;;;;6.60;6.00;;;25.90;87.00;;;;;;5072411;28;20047;-66
2021/06/26 11:25:42;;;;;;;;;;;26.20;84.20;;;;;;5073249;28;20094;-66
2021/06/26 11:28:09;;;;;;;5.88;5.15;;;26.50;79.80;;;;;;5070380;28;19920;-66
2021/06/26 11:30:36;;;;;;;6.72;5.50;;;26.50;82.60;;;;;;5072577;28;20043;-66
2021/06/26 11:33:01;;;;;;;5.40;5.00;;;26.50;82.00;;;;;;5071575;28;20393;-66
2021/06/26 11:35:36;;;;;;;5.45;4.95;;;26.70;81.00;;;;;;5072067;28;20042;-66
2021/06/26 11:38:02;;;;;;;5.25;4.75;;;26.60;82.90;;;;;;5053566;28;20037;-66
2021/06/26 11:40:30;;;;;;;5.47;4.97;;;26.60;81.10;;;;;;5060737;28;20076;-66
2021/06/26 11:43:06;;;;;;;5.18;4.78;;;26.70;79.80;;;;;;5072253;28;20103;-66
2021/06/26 11:45:38;;;;;;;6.18;4.85;;;26.70;81.90;;;;;;5071975;28;20108;-66
2021/06/26 11:48:16;;;;;;;5.50;5.00;;;26.70;82.50;;;;;;5071768;28;20044;-66
2021/06/26 11:51:05;;;;;;;5.30;4.90;;;26.30;81.50;;;;;;5071483;28;20042;-66
2021/06/26 11:53:35;;;;;;;5.50;4.95;;;26.30;81.80;;;;;;5070336;28;20044;-66
2021/06/26 11:56:02;;;;;;;5.82;5.35;;;25.60;84.00;;;;;;5071873;28;20107;-66
2021/06/26 11:58:43;;;;;;;6.10;5.60;;;25.30;85.30;;;;;;5071832;28;20409;-66
2021/06/26 12:01:35;;;;;;;6.20;5.70;;;25.20;87.40;;;;;;5071491;28;20036;-66
2021/06/26 12:04:02;;;;;;;7.15;6.53;;;25.50;87.30;;;;;;5071177;28;20037;-66
2021/06/26 12:06:33;;;;;;;6.57;5.80;;;25.70;85.10;;;;;;5071757;28;20048;-66
2021/06/26 12:08:59;;;;;;;6.30;5.80;;;25.70;88.80;;;;;;5069850;28;20036;-66
2021/06/26 12:11:30;;;;;;;6.93;6.32;;;26.00;83.00;;;;;;5070766;28;20036;-66
2021/06/26 12:13:58;;;;;;;7.30;5.60;;;25.40;87.80;;;;;;5053322;28;20037;-66
2021/06/26 12:16:26;;;;;;;7.03;6.30;;;25.40;87.90;;;;;;5070383;28;20038;-66
2021/06/26 12:18:58;;;;;;;7.40;6.70;;;25.20;90.00;;;;;;5071225;28;20036;-66
2021/06/26 12:21:43;;;;;;;6.72;6.13;;;25.50;86.70;;;;;;5079747;28;20097;-66
2021/06/26 12:24:10;;;;;;;5.63;5.13;;;25.60;90.10;;;;;;5067338;28;20082;-66
2021/06/26 12:26:37;;;;;;;6.72;6.03;;;25.80;86.10;;;;;;5070870;28;20379;-66
2021/06/26 12:29:03;;;;;;;6.28;5.70;;;25.70;87.90;;;;;;5057449;28;20086;-66
2021/06/26 12:31:28;;;;;;;6.90;6.20;;;25.80;86.60;;;;;;5051231;28;20079;-66